sensor_id;sensor_type;location;lat;lon;timestamp;P1;durP1;ratioP1;P2;durP2;ratioP2
48002;SDS011;33768;48.578;11.574;2022-08-20T00:01:29;8.43;;;7.50;;
48002;SDS011;33768;48.578;11.574;2022-08-20T00:04:33;8.30;;;7.47;;
48002;SDS011;33768;48.578;11.574;2022-08-20T00:07:38;7.97;;;7.23;;
48002;SDS011;33768;48.578;11.574;2022-08-20T00:10:43;9.90;;;8.30;;
48002;SDS011;33768;48.578;11.574;2022-08-20T00:13:49;7.67;;;6.97;;
48002;SDS011;33768;48.578;11.574;2022-08-20T00:16:56;8.77;;;7.87;;
48002;SDS011;33768;48.578;11.574;2022-08-20T00:20:00;8.27;;;7.57;;
48002;SDS011;33768;48.578;11.574;2022-08-20T00:23:04;9.03;;;8.13;;
48002;SDS011;33768;48.578;11.574;2022-08-20T00:26:09;14.77;;;8.03;;
48002;SDS011;33768;48.578;11.574;2022-08-20T00:29:14;9.77;;;7.67;;
48002;SDS011;33768;48.578;11.574;2022-08-20T00:32:19;8.57;;;7.67;;
48002;SDS011;33768;48.578;11.574;2022-08-20T00:35:24;10.50;;;7.73;;
48002;SDS011;33768;48.578;11.574;2022-08-20T00:38:30;9.70;;;8.07;;
48002;SDS011;33768;48.578;11.574;2022-08-20T00:41:35;9.10;;;8.20;;
48002;SDS011;33768;48.578;11.574;2022-08-20T00:44:44;8.77;;;7.87;;
48002;SDS011;33768;48.578;11.574;2022-08-20T00:47:49;8.17;;;7.33;;
48002;SDS011;33768;48.578;11.574;2022-08-20T00:50:55;7.90;;;7.10;;
48002;SDS011;33768;48.578;11.574;2022-08-20T00:57:29;8.30;;;7.50;;
48002;SDS011;33768;48.578;11.574;2022-08-20T01:00:39;11.33;;;8.30;;
48002;SDS011;33768;48.578;11.574;2022-08-20T01:03:45;8.87;;;7.93;;
48002;SDS011;33768;48.578;11.574;2022-08-20T01:06:50;8.37;;;7.57;;
48002;SDS011;33768;48.578;11.574;2022-08-20T01:09:54;9.57;;;8.60;;
48002;SDS011;33768;48.578;11.574;2022-08-20T01:12:58;12.27;;;8.30;;
48002;SDS011;33768;48.578;11.574;2022-08-20T01:16:02;9.50;;;7.87;;
48002;SDS011;33768;48.578;11.574;2022-08-20T01:19:10;9.67;;;8.67;;
48002;SDS011;33768;48.578;11.574;2022-08-20T01:22:20;33.37;;;9.93;;
48002;SDS011;33768;48.578;11.574;2022-08-20T01:25:51;10.20;;;8.70;;
48002;SDS011;33768;48.578;11.574;2022-08-20T01:29:15;11.37;;;9.30;;
48002;SDS011;33768;48.578;11.574;2022-08-20T01:32:23;10.87;;;9.70;;
48002;SDS011;33768;48.578;11.574;2022-08-20T01:35:27;13.87;;;9.67;;
48002;SDS011;33768;48.578;11.574;2022-08-20T01:38:32;9.77;;;8.77;;
48002;SDS011;33768;48.578;11.574;2022-08-20T01:41:48;9.90;;;8.37;;
48002;SDS011;33768;48.578;11.574;2022-08-20T01:44:54;10.57;;;9.47;;
48002;SDS011;33768;48.578;11.574;2022-08-20T01:47:58;11.20;;;9.83;;
48002;SDS011;33768;48.578;11.574;2022-08-20T01:54:11;9.40;;;8.33;;
48002;SDS011;33768;48.578;11.574;2022-08-20T01:57:16;10.30;;;9.30;;
48002;SDS011;33768;48.578;11.574;2022-08-20T02:00:23;9.10;;;8.20;;
48002;SDS011;33768;48.578;11.574;2022-08-20T02:03:28;8.93;;;8.03;;
48002;SDS011;33768;48.578;11.574;2022-08-20T02:06:34;8.03;;;7.23;;
48002;SDS011;33768;48.578;11.574;2022-08-20T02:09:41;8.67;;;7.87;;
48002;SDS011;33768;48.578;11.574;2022-08-20T02:12:46;8.70;;;7.80;;
48002;SDS011;33768;48.578;11.574;2022-08-20T02:15:50;9.87;;;7.77;;
48002;SDS011;33768;48.578;11.574;2022-08-20T02:18:55;9.13;;;8.23;;
48002;SDS011;33768;48.578;11.574;2022-08-20T02:22:06;10.00;;;7.60;;
48002;SDS011;33768;48.578;11.574;2022-08-20T02:25:24;11.20;;;7.73;;
48002;SDS011;33768;48.578;11.574;2022-08-20T02:28:35;9.03;;;7.60;;
48002;SDS011;33768;48.578;11.574;2022-08-20T02:31:39;8.10;;;7.30;;
48002;SDS011;33768;48.578;11.574;2022-08-20T02:34:46;8.53;;;7.63;;
48002;SDS011;33768;48.578;11.574;2022-08-20T02:37:52;7.80;;;7.00;;
48002;SDS011;33768;48.578;11.574;2022-08-20T02:40:56;10.03;;;8.07;;
48002;SDS011;33768;48.578;11.574;2022-08-20T02:44:01;9.20;;;7.80;;
48002;SDS011;33768;48.578;11.574;2022-08-20T02:47:05;8.20;;;7.40;;
48002;SDS011;33768;48.578;11.574;2022-08-20T02:50:11;8.37;;;7.47;;
48002;SDS011;33768;48.578;11.574;2022-08-20T02:53:17;8.27;;;7.47;;
48002;SDS011;33768;48.578;11.574;2022-08-20T02:56:21;10.97;;;8.10;;
48002;SDS011;33768;48.578;11.574;2022-08-20T02:59:26;10.57;;;8.30;;
48002;SDS011;33768;48.578;11.574;2022-08-20T03:02:30;9.70;;;7.90;;
48002;SDS011;33768;48.578;11.574;2022-08-20T03:05:35;8.70;;;7.80;;
48002;SDS011;33768;48.578;11.574;2022-08-20T03:08:39;10.07;;;8.07;;
48002;SDS011;33768;48.578;11.574;2022-08-20T03:11:43;8.20;;;7.40;;
48002;SDS011;33768;48.578;11.574;2022-08-20T03:14:48;9.53;;;8.53;;
48002;SDS011;33768;48.578;11.574;2022-08-20T03:17:52;9.53;;;8.27;;
48002;SDS011;33768;48.578;11.574;2022-08-20T03:20:56;10.37;;;8.90;;
48002;SDS011;33768;48.578;11.574;2022-08-20T03:24:01;9.10;;;8.20;;
48002;SDS011;33768;48.578;11.574;2022-08-20T03:27:05;9.37;;;8.37;;
48002;SDS011;33768;48.578;11.574;2022-08-20T03:30:10;10.10;;;8.80;;
48002;SDS011;33768;48.578;11.574;2022-08-20T03:33:16;10.73;;;9.47;;
48002;SDS011;33768;48.578;11.574;2022-08-20T03:36:23;9.97;;;8.97;;
48002;SDS011;33768;48.578;11.574;2022-08-20T03:39:28;10.07;;;8.93;;
48002;SDS011;33768;48.578;11.574;2022-08-20T03:42:32;12.23;;;9.07;;
48002;SDS011;33768;48.578;11.574;2022-08-20T03:45:38;12.57;;;9.63;;
48002;SDS011;33768;48.578;11.574;2022-08-20T03:48:44;11.67;;;10.33;;
48002;SDS011;33768;48.578;11.574;2022-08-20T03:51:48;17.07;;;13.90;;
48002;SDS011;33768;48.578;11.574;2022-08-20T03:54:53;20.40;;;14.07;;
48002;SDS011;33768;48.578;11.574;2022-08-20T03:58:00;19.73;;;16.60;;
48002;SDS011;33768;48.578;11.574;2022-08-20T04:01:06;23.03;;;18.63;;
48002;SDS011;33768;48.578;11.574;2022-08-20T04:04:10;23.23;;;19.40;;
48002;SDS011;33768;48.578;11.574;2022-08-20T04:07:15;18.10;;;15.60;;
48002;SDS011;33768;48.578;11.574;2022-08-20T04:10:28;20.40;;;16.83;;
48002;SDS011;33768;48.578;11.574;2022-08-20T04:13:33;20.43;;;17.60;;
48002;SDS011;33768;48.578;11.574;2022-08-20T04:16:38;21.47;;;18.13;;
48002;SDS011;33768;48.578;11.574;2022-08-20T04:19:42;20.33;;;16.57;;
48002;SDS011;33768;48.578;11.574;2022-08-20T04:22:47;21.40;;;18.33;;
48002;SDS011;33768;48.578;11.574;2022-08-20T04:25:52;20.83;;;16.77;;
48002;SDS011;33768;48.578;11.574;2022-08-20T04:28:57;24.50;;;18.53;;
48002;SDS011;33768;48.578;11.574;2022-08-20T04:32:02;23.53;;;19.07;;
48002;SDS011;33768;48.578;11.574;2022-08-20T04:35:08;20.87;;;18.63;;
48002;SDS011;33768;48.578;11.574;2022-08-20T04:38:15;19.57;;;17.43;;
48002;SDS011;33768;48.578;11.574;2022-08-20T04:41:20;23.93;;;19.23;;
48002;SDS011;33768;48.578;11.574;2022-08-20T04:44:25;24.50;;;18.97;;
48002;SDS011;33768;48.578;11.574;2022-08-20T04:47:30;22.23;;;19.00;;
48002;SDS011;33768;48.578;11.574;2022-08-20T04:50:35;22.90;;;19.07;;
48002;SDS011;33768;48.578;11.574;2022-08-20T04:53:40;20.73;;;18.07;;
48002;SDS011;33768;48.578;11.574;2022-08-20T04:56:45;21.27;;;19.00;;
48002;SDS011;33768;48.578;11.574;2022-08-20T04:59:51;20.10;;;17.90;;
48002;SDS011;33768;48.578;11.574;2022-08-20T05:02:56;20.17;;;17.97;;
48002;SDS011;33768;48.578;11.574;2022-08-20T05:06:00;21.00;;;18.17;;
48002;SDS011;33768;48.578;11.574;2022-08-20T05:09:05;21.13;;;18.80;;
48002;SDS011;33768;48.578;11.574;2022-08-20T05:12:09;21.93;;;19.53;;
48002;SDS011;33768;48.578;11.574;2022-08-20T05:15:14;20.77;;;17.43;;
48002;SDS011;33768;48.578;11.574;2022-08-20T05:18:19;23.57;;;20.93;;
48002;SDS011;33768;48.578;11.574;2022-08-20T05:21:26;21.47;;;19.13;;
48002;SDS011;33768;48.578;11.574;2022-08-20T05:24:30;23.50;;;20.43;;
48002;SDS011;33768;48.578;11.574;2022-08-20T05:27:35;23.70;;;19.37;;
48002;SDS011;33768;48.578;11.574;2022-08-20T05:30:40;20.77;;;18.53;;
48002;SDS011;33768;48.578;11.574;2022-08-20T05:33:46;20.97;;;18.77;;
48002;SDS011;33768;48.578;11.574;2022-08-20T05:36:51;21.00;;;17.93;;
48002;SDS011;33768;48.578;11.574;2022-08-20T05:39:55;20.17;;;17.93;;
48002;SDS011;33768;48.578;11.574;2022-08-20T05:43:03;21.83;;;19.53;;
48002;SDS011;33768;48.578;11.574;2022-08-20T05:46:07;24.43;;;18.10;;
48002;SDS011;33768;48.578;11.574;2022-08-20T05:49:16;19.67;;;17.30;;
48002;SDS011;33768;48.578;11.574;2022-08-20T05:52:22;24.67;;;20.00;;
48002;SDS011;33768;48.578;11.574;2022-08-20T05:55:26;21.77;;;19.47;;
48002;SDS011;33768;48.578;11.574;2022-08-20T05:58:31;22.13;;;18.07;;
48002;SDS011;33768;48.578;11.574;2022-08-20T06:01:36;23.47;;;20.97;;
48002;SDS011;33768;48.578;11.574;2022-08-20T06:04:42;21.77;;;19.13;;
48002;SDS011;33768;48.578;11.574;2022-08-20T06:07:46;21.93;;;19.67;;
48002;SDS011;33768;48.578;11.574;2022-08-20T06:10:50;20.20;;;17.70;;
48002;SDS011;33768;48.578;11.574;2022-08-20T06:13:54;18.73;;;16.20;;
48002;SDS011;33768;48.578;11.574;2022-08-20T06:17:05;24.57;;;19.00;;
48002;SDS011;33768;48.578;11.574;2022-08-20T06:20:12;21.93;;;19.00;;
48002;SDS011;33768;48.578;11.574;2022-08-20T06:23:16;22.23;;;18.57;;
48002;SDS011;33768;48.578;11.574;2022-08-20T06:26:21;23.47;;;17.67;;
48002;SDS011;33768;48.578;11.574;2022-08-20T06:29:27;18.23;;;16.27;;
48002;SDS011;33768;48.578;11.574;2022-08-20T06:32:31;20.10;;;17.77;;
48002;SDS011;33768;48.578;11.574;2022-08-20T06:35:36;19.87;;;17.77;;
48002;SDS011;33768;48.578;11.574;2022-08-20T06:38:42;21.47;;;17.23;;
48002;SDS011;33768;48.578;11.574;2022-08-20T06:41:48;22.57;;;16.03;;
48002;SDS011;33768;48.578;11.574;2022-08-20T06:44:54;20.40;;;16.40;;
48002;SDS011;33768;48.578;11.574;2022-08-20T06:47:59;20.10;;;15.90;;
48002;SDS011;33768;48.578;11.574;2022-08-20T06:51:04;19.00;;;16.13;;
48002;SDS011;33768;48.578;11.574;2022-08-20T06:54:09;18.70;;;16.17;;
48002;SDS011;33768;48.578;11.574;2022-08-20T06:57:13;18.20;;;16.23;;
48002;SDS011;33768;48.578;11.574;2022-08-20T07:00:18;19.77;;;17.23;;
48002;SDS011;33768;48.578;11.574;2022-08-20T07:03:22;19.80;;;17.30;;
48002;SDS011;33768;48.578;11.574;2022-08-20T07:06:26;21.07;;;16.83;;
48002;SDS011;33768;48.578;11.574;2022-08-20T07:09:30;18.80;;;16.40;;
48002;SDS011;33768;48.578;11.574;2022-08-20T07:12:34;20.07;;;17.87;;
48002;SDS011;33768;48.578;11.574;2022-08-20T07:15:39;19.70;;;16.07;;
48002;SDS011;33768;48.578;11.574;2022-08-20T07:18:43;21.30;;;17.30;;
48002;SDS011;33768;48.578;11.574;2022-08-20T07:21:47;20.67;;;15.87;;
48002;SDS011;33768;48.578;11.574;2022-08-20T07:24:51;19.47;;;16.67;;
48002;SDS011;33768;48.578;11.574;2022-08-20T07:28:03;20.17;;;16.60;;
48002;SDS011;33768;48.578;11.574;2022-08-20T07:31:09;22.07;;;15.83;;
48002;SDS011;33768;48.578;11.574;2022-08-20T07:34:32;17.67;;;14.67;;
48002;SDS011;33768;48.578;11.574;2022-08-20T07:37:43;21.70;;;16.37;;
48002;SDS011;33768;48.578;11.574;2022-08-20T07:40:53;20.10;;;14.83;;
48002;SDS011;33768;48.578;11.574;2022-08-20T07:44:03;19.07;;;16.07;;
48002;SDS011;33768;48.578;11.574;2022-08-20T07:47:08;17.97;;;15.53;;
48002;SDS011;33768;48.578;11.574;2022-08-20T07:50:14;17.50;;;15.63;;
48002;SDS011;33768;48.578;11.574;2022-08-20T07:53:20;18.27;;;16.10;;
48002;SDS011;33768;48.578;11.574;2022-08-20T07:56:24;17.87;;;14.83;;
48002;SDS011;33768;48.578;11.574;2022-08-20T07:59:30;16.00;;;14.27;;
48002;SDS011;33768;48.578;11.574;2022-08-20T08:02:35;16.77;;;14.90;;
48002;SDS011;33768;48.578;11.574;2022-08-20T08:05:40;18.33;;;14.83;;
48002;SDS011;33768;48.578;11.574;2022-08-20T08:08:47;18.87;;;15.20;;
48002;SDS011;33768;48.578;11.574;2022-08-20T08:11:51;17.83;;;15.70;;
48002;SDS011;33768;48.578;11.574;2022-08-20T08:15:00;16.93;;;15.13;;
48002;SDS011;33768;48.578;11.574;2022-08-20T08:18:08;18.97;;;14.50;;
48002;SDS011;33768;48.578;11.574;2022-08-20T08:21:16;17.17;;;14.67;;
48002;SDS011;33768;48.578;11.574;2022-08-20T08:24:21;19.00;;;15.73;;
48002;SDS011;33768;48.578;11.574;2022-08-20T08:27:25;19.03;;;14.70;;
48002;SDS011;33768;48.578;11.574;2022-08-20T08:30:30;16.73;;;14.77;;
48002;SDS011;33768;48.578;11.574;2022-08-20T08:33:34;14.67;;;13.07;;
48002;SDS011;33768;48.578;11.574;2022-08-20T08:36:38;16.63;;;14.27;;
48002;SDS011;33768;48.578;11.574;2022-08-20T08:39:42;19.47;;;14.67;;
48002;SDS011;33768;48.578;11.574;2022-08-20T08:42:47;23.63;;;13.97;;
48002;SDS011;33768;48.578;11.574;2022-08-20T08:46:00;15.07;;;12.63;;
48002;SDS011;33768;48.578;11.574;2022-08-20T08:49:12;16.83;;;13.33;;
48002;SDS011;33768;48.578;11.574;2022-08-20T08:52:21;15.23;;;12.93;;
48002;SDS011;33768;48.578;11.574;2022-08-20T08:55:28;15.47;;;13.20;;
48002;SDS011;33768;48.578;11.574;2022-08-20T08:58:34;14.77;;;12.47;;
48002;SDS011;33768;48.578;11.574;2022-08-20T09:01:40;13.07;;;11.53;;
48002;SDS011;33768;48.578;11.574;2022-08-20T09:04:49;13.50;;;11.70;;
48002;SDS011;33768;48.578;11.574;2022-08-20T09:07:54;15.20;;;11.77;;
48002;SDS011;33768;48.578;11.574;2022-08-20T09:11:02;13.87;;;11.90;;
48002;SDS011;33768;48.578;11.574;2022-08-20T09:14:08;14.23;;;11.63;;
48002;SDS011;33768;48.578;11.574;2022-08-20T09:17:13;15.67;;;12.03;;
48002;SDS011;33768;48.578;11.574;2022-08-20T09:20:22;13.70;;;11.57;;
48002;SDS011;33768;48.578;11.574;2022-08-20T09:23:26;16.73;;;12.10;;
48002;SDS011;33768;48.578;11.574;2022-08-20T09:26:30;15.17;;;12.27;;
48002;SDS011;33768;48.578;11.574;2022-08-20T09:29:34;19.13;;;12.90;;
48002;SDS011;33768;48.578;11.574;2022-08-20T09:32:39;14.80;;;12.33;;
48002;SDS011;33768;48.578;11.574;2022-08-20T09:35:43;16.07;;;13.20;;
48002;SDS011;33768;48.578;11.574;2022-08-20T09:38:49;14.60;;;12.00;;
48002;SDS011;33768;48.578;11.574;2022-08-20T09:41:53;13.73;;;12.23;;
48002;SDS011;33768;48.578;11.574;2022-08-20T09:44:58;15.40;;;12.53;;
48002;SDS011;33768;48.578;11.574;2022-08-20T09:48:03;15.80;;;12.63;;
48002;SDS011;33768;48.578;11.574;2022-08-20T09:51:07;13.67;;;12.07;;
48002;SDS011;33768;48.578;11.574;2022-08-20T09:54:11;15.53;;;12.23;;
48002;SDS011;33768;48.578;11.574;2022-08-20T09:57:15;14.50;;;12.03;;
48002;SDS011;33768;48.578;11.574;2022-08-20T10:00:19;16.23;;;12.80;;
48002;SDS011;33768;48.578;11.574;2022-08-20T10:03:24;13.53;;;10.83;;
48002;SDS011;33768;48.578;11.574;2022-08-20T10:06:28;13.80;;;11.07;;
48002;SDS011;33768;48.578;11.574;2022-08-20T10:09:32;15.83;;;12.03;;
48002;SDS011;33768;48.578;11.574;2022-08-20T10:12:38;15.37;;;11.67;;
48002;SDS011;33768;48.578;11.574;2022-08-20T10:15:44;14.63;;;12.53;;
48002;SDS011;33768;48.578;11.574;2022-08-20T10:18:48;15.17;;;12.30;;
48002;SDS011;33768;48.578;11.574;2022-08-20T10:21:52;15.17;;;11.63;;
48002;SDS011;33768;48.578;11.574;2022-08-20T10:24:57;12.80;;;11.50;;
48002;SDS011;33768;48.578;11.574;2022-08-20T10:28:02;12.80;;;11.33;;
48002;SDS011;33768;48.578;11.574;2022-08-20T10:31:09;14.40;;;11.60;;
48002;SDS011;33768;48.578;11.574;2022-08-20T10:34:14;13.73;;;12.33;;
48002;SDS011;33768;48.578;11.574;2022-08-20T10:37:22;16.77;;;11.83;;
48002;SDS011;33768;48.578;11.574;2022-08-20T10:40:27;12.00;;;10.70;;
48002;SDS011;33768;48.578;11.574;2022-08-20T10:43:31;12.17;;;10.70;;
48002;SDS011;33768;48.578;11.574;2022-08-20T10:46:35;13.47;;;10.17;;
48002;SDS011;33768;48.578;11.574;2022-08-20T10:49:39;12.33;;;11.00;;
48002;SDS011;33768;48.578;11.574;2022-08-20T10:52:44;13.23;;;10.53;;
48002;SDS011;33768;48.578;11.574;2022-08-20T10:55:49;12.80;;;11.00;;
48002;SDS011;33768;48.578;11.574;2022-08-20T10:58:55;13.00;;;11.67;;
48002;SDS011;33768;48.578;11.574;2022-08-20T11:02:00;12.57;;;11.17;;
48002;SDS011;33768;48.578;11.574;2022-08-20T11:05:04;11.97;;;10.77;;
48002;SDS011;33768;48.578;11.574;2022-08-20T11:08:08;13.93;;;11.67;;
48002;SDS011;33768;48.578;11.574;2022-08-20T11:11:13;13.37;;;10.27;;
48002;SDS011;33768;48.578;11.574;2022-08-20T11:14:17;13.60;;;12.23;;
48002;SDS011;33768;48.578;11.574;2022-08-20T11:17:22;12.60;;;11.07;;
48002;SDS011;33768;48.578;11.574;2022-08-20T11:20:28;13.93;;;12.53;;
48002;SDS011;33768;48.578;11.574;2022-08-20T11:23:34;12.13;;;10.97;;
48002;SDS011;33768;48.578;11.574;2022-08-20T11:26:39;12.97;;;11.67;;
48002;SDS011;33768;48.578;11.574;2022-08-20T11:29:43;13.77;;;12.37;;
48002;SDS011;33768;48.578;11.574;2022-08-20T11:32:47;14.53;;;13.03;;
48002;SDS011;33768;48.578;11.574;2022-08-20T11:35:51;15.27;;;12.33;;
48002;SDS011;33768;48.578;11.574;2022-08-20T11:38:56;13.70;;;12.10;;
48002;SDS011;33768;48.578;11.574;2022-08-20T11:42:00;15.20;;;12.50;;
48002;SDS011;33768;48.578;11.574;2022-08-20T11:45:06;13.93;;;12.30;;
48002;SDS011;33768;48.578;11.574;2022-08-20T11:48:10;15.40;;;13.37;;
48002;SDS011;33768;48.578;11.574;2022-08-20T11:51:14;14.20;;;12.77;;
48002;SDS011;33768;48.578;11.574;2022-08-20T11:54:19;14.53;;;13.03;;
48002;SDS011;33768;48.578;11.574;2022-08-20T11:57:24;14.07;;;12.60;;
48002;SDS011;33768;48.578;11.574;2022-08-20T12:00:34;14.40;;;12.90;;
48002;SDS011;33768;48.578;11.574;2022-08-20T12:03:40;14.07;;;12.30;;
48002;SDS011;33768;48.578;11.574;2022-08-20T12:06:44;13.03;;;11.73;;
48002;SDS011;33768;48.578;11.574;2022-08-20T12:09:48;14.53;;;12.53;;
48002;SDS011;33768;48.578;11.574;2022-08-20T12:12:53;15.27;;;12.27;;
48002;SDS011;33768;48.578;11.574;2022-08-20T12:15:58;14.30;;;12.80;;
48002;SDS011;33768;48.578;11.574;2022-08-20T12:19:03;15.53;;;13.93;;
48002;SDS011;33768;48.578;11.574;2022-08-20T12:22:07;16.43;;;14.23;;
48002;SDS011;33768;48.578;11.574;2022-08-20T12:25:12;14.43;;;12.93;;
48002;SDS011;33768;48.578;11.574;2022-08-20T12:28:17;14.40;;;12.90;;
48002;SDS011;33768;48.578;11.574;2022-08-20T12:31:21;14.43;;;13.03;;
48002;SDS011;33768;48.578;11.574;2022-08-20T12:34:25;15.60;;;13.57;;
48002;SDS011;33768;48.578;11.574;2022-08-20T12:37:29;14.53;;;13.03;;
48002;SDS011;33768;48.578;11.574;2022-08-20T12:40:34;13.63;;;12.33;;
48002;SDS011;33768;48.578;11.574;2022-08-20T12:43:38;14.40;;;13.00;;
48002;SDS011;33768;48.578;11.574;2022-08-20T12:46:42;14.63;;;13.13;;
48002;SDS011;33768;48.578;11.574;2022-08-20T12:49:48;14.37;;;12.90;;
48002;SDS011;33768;48.578;11.574;2022-08-20T12:52:54;13.97;;;12.57;;
48002;SDS011;33768;48.578;11.574;2022-08-20T12:55:58;15.43;;;13.97;;
48002;SDS011;33768;48.578;11.574;2022-08-20T12:59:05;15.60;;;14.00;;
48002;SDS011;33768;48.578;11.574;2022-08-20T13:02:09;16.83;;;14.67;;
48002;SDS011;33768;48.578;11.574;2022-08-20T13:05:14;15.37;;;13.77;;
48002;SDS011;33768;48.578;11.574;2022-08-20T13:08:18;15.03;;;13.43;;
48002;SDS011;33768;48.578;11.574;2022-08-20T13:11:22;17.93;;;15.43;;
48002;SDS011;33768;48.578;11.574;2022-08-20T13:14:27;14.60;;;13.10;;
48002;SDS011;33768;48.578;11.574;2022-08-20T13:17:31;14.93;;;13.33;;
48002;SDS011;33768;48.578;11.574;2022-08-20T13:20:35;14.60;;;13.10;;
48002;SDS011;33768;48.578;11.574;2022-08-20T13:23:40;16.93;;;13.77;;
48002;SDS011;33768;48.578;11.574;2022-08-20T13:26:44;15.87;;;13.93;;
48002;SDS011;33768;48.578;11.574;2022-08-20T13:29:49;19.30;;;14.60;;
48002;SDS011;33768;48.578;11.574;2022-08-20T13:32:56;19.27;;;15.37;;
48002;SDS011;33768;48.578;11.574;2022-08-20T13:36:00;15.20;;;13.70;;
48002;SDS011;33768;48.578;11.574;2022-08-20T13:39:04;17.63;;;15.77;;
48002;SDS011;33768;48.578;11.574;2022-08-20T13:42:10;16.20;;;14.67;;
48002;SDS011;33768;48.578;11.574;2022-08-20T13:45:15;16.97;;;15.30;;
48002;SDS011;33768;48.578;11.574;2022-08-20T13:48:20;14.80;;;13.37;;
48002;SDS011;33768;48.578;11.574;2022-08-20T13:51:24;18.13;;;15.63;;
48002;SDS011;33768;48.578;11.574;2022-08-20T13:54:28;19.57;;;17.57;;
48002;SDS011;33768;48.578;11.574;2022-08-20T13:57:32;17.97;;;16.23;;
48002;SDS011;33768;48.578;11.574;2022-08-20T14:00:36;18.60;;;16.80;;
48002;SDS011;33768;48.578;11.574;2022-08-20T14:03:41;17.20;;;15.43;;
48002;SDS011;33768;48.578;11.574;2022-08-20T14:06:45;19.07;;;17.00;;
48002;SDS011;33768;48.578;11.574;2022-08-20T14:09:53;18.70;;;16.80;;
48002;SDS011;33768;48.578;11.574;2022-08-20T14:13:01;18.33;;;16.50;;
48002;SDS011;33768;48.578;11.574;2022-08-20T14:16:06;18.17;;;16.27;;
48002;SDS011;33768;48.578;11.574;2022-08-20T14:19:10;18.57;;;16.63;;
48002;SDS011;33768;48.578;11.574;2022-08-20T14:22:14;20.30;;;17.83;;
48002;SDS011;33768;48.578;11.574;2022-08-20T14:25:20;17.53;;;15.73;;
48002;SDS011;33768;48.578;11.574;2022-08-20T14:28:25;18.63;;;16.70;;
48002;SDS011;33768;48.578;11.574;2022-08-20T14:31:29;18.67;;;16.70;;
48002;SDS011;33768;48.578;11.574;2022-08-20T14:34:34;22.67;;;16.43;;
48002;SDS011;33768;48.578;11.574;2022-08-20T14:37:40;9.07;;;8.17;;
48002;SDS011;33768;48.578;11.574;2022-08-20T14:40:46;8.43;;;7.63;;
48002;SDS011;33768;48.578;11.574;2022-08-20T14:43:51;8.00;;;6.33;;
48002;SDS011;33768;48.578;11.574;2022-08-20T14:46:55;5.17;;;4.63;;
48002;SDS011;33768;48.578;11.574;2022-08-20T14:50:00;5.87;;;5.33;;
48002;SDS011;33768;48.578;11.574;2022-08-20T14:53:08;4.97;;;4.47;;
48002;SDS011;33768;48.578;11.574;2022-08-20T14:56:12;8.10;;;5.10;;
48002;SDS011;33768;48.578;11.574;2022-08-20T14:59:17;4.40;;;4.00;;
48002;SDS011;33768;48.578;11.574;2022-08-20T15:02:22;4.80;;;4.23;;
48002;SDS011;33768;48.578;11.574;2022-08-20T15:05:26;4.23;;;3.83;;
48002;SDS011;33768;48.578;11.574;2022-08-20T15:08:31;4.90;;;3.40;;
48002;SDS011;33768;48.578;11.574;2022-08-20T15:11:35;3.70;;;3.40;;
48002;SDS011;33768;48.578;11.574;2022-08-20T15:14:41;3.93;;;3.47;;
48002;SDS011;33768;48.578;11.574;2022-08-20T15:17:47;8.03;;;3.40;;
48002;SDS011;33768;48.578;11.574;2022-08-20T15:20:53;3.37;;;3.07;;
48002;SDS011;33768;48.578;11.574;2022-08-20T15:23:57;4.03;;;3.50;;
48002;SDS011;33768;48.578;11.574;2022-08-20T15:27:09;4.53;;;3.63;;
48002;SDS011;33768;48.578;11.574;2022-08-20T15:30:19;3.80;;;3.00;;
48002;SDS011;33768;48.578;11.574;2022-08-20T15:33:25;3.27;;;2.97;;
48002;SDS011;33768;48.578;11.574;2022-08-20T15:36:29;3.50;;;3.10;;
48002;SDS011;33768;48.578;11.574;2022-08-20T15:39:33;3.70;;;3.00;;
48002;SDS011;33768;48.578;11.574;2022-08-20T15:42:37;3.30;;;3.00;;
48002;SDS011;33768;48.578;11.574;2022-08-20T15:45:42;3.20;;;2.90;;
48002;SDS011;33768;48.578;11.574;2022-08-20T15:48:46;5.90;;;3.33;;
48002;SDS011;33768;48.578;11.574;2022-08-20T15:51:51;4.47;;;3.47;;
48002;SDS011;33768;48.578;11.574;2022-08-20T15:54:55;3.47;;;3.17;;
48002;SDS011;33768;48.578;11.574;2022-08-20T15:58:04;4.37;;;3.97;;
48002;SDS011;33768;48.578;11.574;2022-08-20T16:14:43;5.33;;;3.60;;
48002;SDS011;33768;48.578;11.574;2022-08-20T16:17:54;3.90;;;3.50;;
48002;SDS011;33768;48.578;11.574;2022-08-20T16:21:06;4.30;;;3.90;;
48002;SDS011;33768;48.578;11.574;2022-08-20T16:24:13;5.87;;;3.47;;
48002;SDS011;33768;48.578;11.574;2022-08-20T16:27:35;4.33;;;3.93;;
48002;SDS011;33768;48.578;11.574;2022-08-20T16:30:59;4.90;;;3.27;;
48002;SDS011;33768;48.578;11.574;2022-08-20T16:34:12;4.43;;;4.03;;
48002;SDS011;33768;48.578;11.574;2022-08-20T16:37:40;4.70;;;4.03;;
48002;SDS011;33768;48.578;11.574;2022-08-20T16:41:13;4.00;;;3.60;;
48002;SDS011;33768;48.578;11.574;2022-08-20T16:44:35;4.47;;;4.07;;
48002;SDS011;33768;48.578;11.574;2022-08-20T16:47:43;4.40;;;3.83;;
48002;SDS011;33768;48.578;11.574;2022-08-20T16:54:00;7.87;;;4.03;;
48002;SDS011;33768;48.578;11.574;2022-08-20T16:57:05;10.03;;;4.27;;
48002;SDS011;33768;48.578;11.574;2022-08-20T17:03:25;4.73;;;3.73;;
48002;SDS011;33768;48.578;11.574;2022-08-20T17:06:32;6.23;;;4.13;;
48002;SDS011;33768;48.578;11.574;2022-08-20T17:09:41;5.73;;;3.77;;
48002;SDS011;33768;48.578;11.574;2022-08-20T17:12:50;5.40;;;3.93;;
48002;SDS011;33768;48.578;11.574;2022-08-20T17:22:38;3.77;;;3.27;;
48002;SDS011;33768;48.578;11.574;2022-08-20T17:25:53;8.23;;;3.47;;
48002;SDS011;33768;48.578;11.574;2022-08-20T17:29:02;4.27;;;3.53;;
48002;SDS011;33768;48.578;11.574;2022-08-20T17:32:24;4.70;;;3.43;;
48002;SDS011;33768;48.578;11.574;2022-08-20T17:38:47;4.27;;;3.60;;
48002;SDS011;33768;48.578;11.574;2022-08-20T17:41:55;3.67;;;3.20;;
48002;SDS011;33768;48.578;11.574;2022-08-20T17:45:11;3.80;;;3.30;;
48002;SDS011;33768;48.578;11.574;2022-08-20T17:48:21;3.67;;;3.17;;
48002;SDS011;33768;48.578;11.574;2022-08-20T17:51:29;4.07;;;3.13;;
48002;SDS011;33768;48.578;11.574;2022-08-20T17:54:40;4.13;;;3.00;;
48002;SDS011;33768;48.578;11.574;2022-08-20T17:57:48;4.47;;;3.00;;
48002;SDS011;33768;48.578;11.574;2022-08-20T18:00:58;4.13;;;2.97;;
48002;SDS011;33768;48.578;11.574;2022-08-20T18:04:03;3.23;;;2.93;;
48002;SDS011;33768;48.578;11.574;2022-08-20T18:07:10;7.37;;;3.20;;
48002;SDS011;33768;48.578;11.574;2022-08-20T18:10:20;5.47;;;3.10;;
48002;SDS011;33768;48.578;11.574;2022-08-20T18:16:59;8.07;;;3.40;;
48002;SDS011;33768;48.578;11.574;2022-08-20T18:23:46;5.70;;;3.20;;
48002;SDS011;33768;48.578;11.574;2022-08-20T18:26:57;6.00;;;3.50;;
48002;SDS011;33768;48.578;11.574;2022-08-20T18:30:10;4.70;;;3.67;;
48002;SDS011;33768;48.578;11.574;2022-08-20T18:33:34;3.63;;;3.20;;
48002;SDS011;33768;48.578;11.574;2022-08-20T18:36:40;4.40;;;3.63;;
48002;SDS011;33768;48.578;11.574;2022-08-20T18:40:03;5.73;;;3.90;;
48002;SDS011;33768;48.578;11.574;2022-08-20T18:43:26;5.53;;;4.07;;
48002;SDS011;33768;48.578;11.574;2022-08-20T18:46:33;4.70;;;4.20;;
48002;SDS011;33768;48.578;11.574;2022-08-20T18:49:38;5.30;;;4.27;;